Time;durP1;ratioP1;P1;durP2;ratioP2;P2;SDS_P1;SDS_P2;PMS_P1;PMS_P2;Temp;Humidity;BMP_temperature;BMP_pressure;BME280_temperature;BME280_humidity;BME280_pressure;Samples;Min_cycle;Max_cycle;Signal;HPM_P1;HPM_P2
2023/04/17 00:01:37;;;;;;;43.90;22.23;;;6.90;99.90;;;;;;5043876;28;20041;-74
2023/04/17 00:04:03;;;;;;;41.97;20.88;;;6.90;99.90;;;;;;5043458;28;20493;-74
2023/04/17 00:06:28;;;;;;;44.50;21.60;;;6.90;99.90;;;;;;5041633;28;20044;-74
2023/04/17 00:08:54;;;;;;;42.90;22.03;;;6.90;99.90;;;;;;5044765;28;20037;-74
2023/04/17 00:11:21;;;;;;;46.47;21.40;;;6.90;99.90;;;;;;5032741;28;20134;-74
2023/04/17 00:13:47;;;;;;;50.05;22.15;;;6.90;99.90;;;;;;5021881;28;20034;-74
2023/04/17 00:16:12;;;;;;;49.83;21.40;;;6.90;99.90;;;;;;5026282;28;20062;-74
2023/04/17 00:18:39;;;;;;;54.77;23.23;;;6.80;99.90;;;;;;5023512;28;20064;-74
2023/04/17 00:21:05;;;;;;;51.53;22.95;;;6.80;99.90;;;;;;5018798;28;20053;-74
2023/04/17 00:23:31;;;;;;;53.78;22.77;;;6.80;99.90;;;;;;5021480;28;20044;-74
2023/04/17 00:25:56;;;;;;;54.57;23.63;;;6.80;99.90;;;;;;5023716;28;20055;-74
2023/04/17 00:28:22;;;;;;;61.03;24.87;;;6.80;99.90;;;;;;5045760;28;20045;-74
2023/04/17 00:30:48;;;;;;;60.30;24.43;;;6.80;99.90;;;;;;5027443;28;20044;-74
2023/04/17 00:33:14;;;;;;;55.60;24.43;;;6.80;99.90;;;;;;5022432;28;20722;-74
2023/04/17 00:35:40;;;;;;;52.60;23.05;;;6.80;99.90;;;;;;5027573;28;20780;-74
2023/04/17 00:38:07;;;;;;;46.77;20.77;;;6.90;99.90;;;;;;5049255;28;20055;-74
2023/04/17 00:40:34;;;;;;;49.50;22.20;;;6.80;99.90;;;;;;5049755;28;20051;-74
2023/04/17 00:43:01;;;;;;;57.72;21.88;;;6.90;99.90;;;;;;5020599;28;20037;-74
2023/04/17 00:45:27;;;;;;;45.35;21.83;;;6.90;99.90;;;;;;5033528;28;20480;-74
2023/04/17 00:47:54;;;;;;;46.50;20.83;;;6.90;99.90;;;;;;5047013;28;20107;-74
2023/04/17 00:50:20;;;;;;;43.45;20.30;;;6.90;99.90;;;;;;5047439;28;20033;-74
2023/04/17 00:52:46;;;;;;;43.70;20.90;;;6.80;99.90;;;;;;5044095;28;20164;-74
2023/04/17 00:55:14;;;;;;;40.58;20.27;;;6.80;99.90;;;;;;5048217;28;20643;-74
2023/04/17 00:57:41;;;;;;;40.53;21.38;;;6.80;99.90;;;;;;5026691;28;20043;-74
2023/04/17 01:00:08;;;;;;;42.08;21.27;;;6.80;99.90;;;;;;5036450;28;20036;-74
2023/04/17 01:02:34;;;;;;;42.65;21.15;;;6.80;99.90;;;;;;5033919;28;20108;-74
2023/04/17 01:04:59;;;;;;;53.50;23.83;;;6.80;99.90;;;;;;5039330;28;20573;-74
2023/04/17 01:07:26;;;;;;;43.57;21.60;;;6.80;99.90;;;;;;5039394;28;20119;-74
2023/04/17 01:09:52;;;;;;;45.92;22.00;;;6.80;99.90;;;;;;5025853;28;20041;-74
2023/04/17 01:12:23;;;;;;;52.05;22.52;;;6.80;99.90;;;;;;5032905;28;20045;-74
2023/04/17 01:14:56;;;;;;;58.25;25.02;;;6.80;99.90;;;;;;5047303;28;20094;-74
2023/04/17 01:17:24;;;;;;;48.85;23.65;;;6.80;99.90;;;;;;5032205;28;20041;-74
2023/04/17 01:19:51;;;;;;;52.05;23.77;;;6.80;99.90;;;;;;5043491;28;20065;-74
2023/04/17 01:22:17;;;;;;;47.35;23.50;;;6.80;99.90;;;;;;5027825;28;20413;-74
2023/04/17 01:24:43;;;;;;;48.75;22.52;;;6.80;99.90;;;;;;5029899;28;20036;-74
2023/04/17 01:27:08;;;;;;;49.27;22.90;;;6.80;99.90;;;;;;5031936;28;20037;-74
2023/04/17 01:29:34;;;;;;;47.07;22.67;;;6.80;99.90;;;;;;5024211;28;20110;-74
2023/04/17 01:32:00;;;;;;;46.93;21.43;;;6.80;99.90;;;;;;5015928;28;20041;-74
2023/04/17 01:34:26;;;;;;;48.57;22.40;;;6.80;99.90;;;;;;5027921;28;20045;-74
2023/04/17 01:36:51;;;;;;;54.13;22.10;;;6.80;99.90;;;;;;5027256;28;20049;-74
2023/04/17 01:39:17;;;;;;;47.53;23.27;;;6.80;99.90;;;;;;5030906;28;20076;-74
2023/04/17 01:41:43;;;;;;;48.40;22.47;;;6.80;99.90;;;;;;5040259;28;20067;-74
2023/04/17 01:44:09;;;;;;;50.40;21.17;;;6.80;99.90;;;;;;5040277;28;20034;-74
2023/04/17 01:46:35;;;;;;;46.90;21.33;;;6.80;99.90;;;;;;5022139;28;20516;-74
2023/04/17 01:49:01;;;;;;;43.83;20.83;;;6.80;99.90;;;;;;5015457;28;20041;-74
2023/04/17 01:51:26;;;;;;;48.73;21.13;;;6.80;99.90;;;;;;5046575;28;20076;-74
2023/04/17 01:53:52;;;;;;;59.87;21.23;;;6.80;99.90;;;;;;5022861;28;20033;-74
2023/04/17 01:56:18;;;;;;;47.90;20.90;;;6.80;99.90;;;;;;5037179;28;20040;-74
2023/04/17 01:58:44;;;;;;;56.07;22.00;;;6.80;99.90;;;;;;5038826;28;20048;-74
2023/04/17 02:01:10;;;;;;;50.27;20.27;;;6.70;99.90;;;;;;5020254;28;20045;-74
2023/04/17 02:03:36;;;;;;;39.73;20.97;;;6.70;99.90;;;;;;5029365;28;20040;-74
2023/04/17 02:06:01;;;;;;;50.03;20.57;;;6.70;99.90;;;;;;5030401;28;20485;-74
2023/04/17 02:08:28;;;;;;;42.17;20.67;;;6.80;99.90;;;;;;5042803;28;20033;-74
2023/04/17 02:10:54;;;;;;;41.78;21.08;;;6.80;99.90;;;;;;5028688;28;20072;-74
2023/04/17 02:13:20;;;;;;;46.40;20.38;;;6.80;99.90;;;;;;5030566;28;20049;-74
2023/04/17 02:15:46;;;;;;;33.57;18.90;;;6.80;99.90;;;;;;5026625;28;20102;-74
2023/04/17 02:18:11;;;;;;;35.90;18.73;;;6.70;99.90;;;;;;5041441;28;20043;-74
2023/04/17 02:20:38;;;;;;;34.03;18.63;;;6.80;99.90;;;;;;5021866;28;20409;-74
2023/04/17 02:23:05;;;;;;;35.75;17.63;;;6.70;99.90;;;;;;5027117;28;20459;-74
2023/04/17 02:25:31;;;;;;;39.35;19.25;;;6.70;99.90;;;;;;5030825;28;20500;-74
2023/04/17 02:27:57;;;;;;;45.72;18.85;;;6.70;99.90;;;;;;5029248;28;20041;-74
2023/04/17 02:30:24;;;;;;;41.93;18.77;;;6.70;99.90;;;;;;5029797;28;20037;-74
2023/04/17 02:32:51;;;;;;;35.92;18.58;;;6.70;99.90;;;;;;5045238;28;20566;-74
2023/04/17 02:35:22;;;;;;;38.22;19.17;;;6.60;99.90;;;;;;5031111;28;20411;-74
2023/04/17 02:37:48;;;;;;;52.88;19.13;;;6.60;99.90;;;;;;5026837;28;20059;-74
2023/04/17 02:40:15;;;;;;;49.97;20.30;;;6.60;99.90;;;;;;5030677;28;20033;-74
2023/04/17 02:42:41;;;;;;;39.63;19.15;;;6.60;99.90;;;;;;5042328;28;20029;-74
2023/04/17 02:45:08;;;;;;;35.97;18.13;;;6.70;99.90;;;;;;5023022;28;20097;-74
2023/04/17 02:47:33;;;;;;;33.33;17.77;;;6.60;99.90;;;;;;5020649;28;20076;-74
2023/04/17 02:49:59;;;;;;;42.60;18.77;;;6.60;99.90;;;;;;5031205;28;20041;-74
2023/04/17 02:52:29;;;;;;;40.90;18.00;;;6.60;99.90;;;;;;5025940;28;20124;-74
2023/04/17 02:54:55;;;;;;;36.08;18.52;;;6.50;99.90;;;;;;5015893;28;20098;-74
2023/04/17 02:57:22;;;;;;;37.50;18.10;;;6.50;99.90;;;;;;5041102;28;20132;-74
2023/04/17 02:59:49;;;;;;;45.05;18.60;;;6.40;99.90;;;;;;5044365;28;20378;-74
2023/04/17 03:02:15;;;;;;;53.17;17.83;;;6.40;99.90;;;;;;5028185;28;20045;-74
2023/04/17 03:04:41;;;;;;;50.30;18.27;;;6.40;99.90;;;;;;5037625;28;20048;-74
2023/04/17 03:07:09;;;;;;;37.65;17.73;;;6.40;99.90;;;;;;5047121;28;20080;-74
2023/04/17 03:09:35;;;;;;;48.40;18.38;;;6.40;99.90;;;;;;5028361;28;20584;-74
2023/04/17 03:12:01;;;;;;;41.05;19.73;;;6.40;99.90;;;;;;5026371;28;20064;-74
2023/04/17 03:14:26;;;;;;;37.53;18.13;;;6.40;99.90;;;;;;5022008;28;20033;-74
2023/04/17 03:16:52;;;;;;;45.10;20.57;;;6.30;99.90;;;;;;5027641;28;20041;-74
2023/04/17 03:19:18;;;;;;;48.33;19.63;;;6.30;99.90;;;;;;5040677;28;20036;-74
2023/04/17 03:21:44;;;;;;;47.27;19.50;;;6.40;99.90;;;;;;5028775;28;20136;-74
2023/04/17 03:24:11;;;;;;;41.70;19.90;;;6.40;99.90;;;;;;5026092;28;20162;-74
2023/04/17 03:26:37;;;;;;;40.30;18.52;;;6.40;99.90;;;;;;5033369;28;20037;-74
2023/04/17 03:29:02;;;;;;;41.97;19.23;;;6.30;99.90;;;;;;5050737;28;20094;-74
2023/04/17 03:31:28;;;;;;;78.10;19.20;;;6.40;99.90;;;;;;5034268;28;20047;-74
2023/04/17 03:33:54;;;;;;;90.67;20.70;;;6.40;99.90;;;;;;5026667;28;20041;-74
2023/04/17 03:36:20;;;;;;;105.07;22.70;;;6.30;99.90;;;;;;5031446;28;20037;-74
2023/04/17 03:38:45;;;;;;;150.60;25.00;;;6.40;99.90;;;;;;5032415;28;20102;-74
2023/04/17 03:41:11;;;;;;;68.50;21.27;;;6.30;99.90;;;;;;5032348;28;20041;-74
2023/04/17 03:43:37;;;;;;;75.53;20.70;;;6.30;99.90;;;;;;5033101;28;20083;-74
2023/04/17 03:46:02;;;;;;;58.00;20.13;;;6.30;99.90;;;;;;5048543;28;20116;-74
2023/04/17 03:48:28;;;;;;;85.37;21.73;;;6.30;99.90;;;;;;5031916;28;20029;-74
2023/04/17 03:50:54;;;;;;;73.73;22.20;;;6.30;99.90;;;;;;5030354;28;20380;-74
2023/04/17 03:53:19;;;;;;;82.50;21.87;;;6.30;99.90;;;;;;5050068;28;20123;-74
2023/04/17 03:55:45;;;;;;;78.43;21.67;;;6.30;99.90;;;;;;5039363;28;20068;-75
2023/04/17 03:58:11;;;;;;;112.47;24.40;;;6.30;99.90;;;;;;5026177;28;20041;-74
2023/04/17 04:00:37;;;;;;;105.80;21.93;;;6.30;99.90;;;;;;5020051;28;20041;-75
2023/04/17 04:03:03;;;;;;;85.65;21.67;;;6.30;99.90;;;;;;5022546;28;20496;-75
2023/04/17 04:05:29;;;;;;;42.78;20.92;;;6.30;99.90;;;;;;5026463;28;20037;-74
2023/04/17 04:07:55;;;;;;;75.23;22.10;;;6.30;99.90;;;;;;5032069;28;20177;-74
2023/04/17 04:10:20;;;;;;;153.52;24.55;;;6.30;99.90;;;;;;5044382;28;20042;-74
2023/04/17 04:12:46;;;;;;;110.37;22.10;;;6.30;99.90;;;;;;5031442;28;20067;-74
2023/04/17 04:15:12;;;;;;;104.38;22.88;;;6.30;99.90;;;;;;5028139;28;20047;-74
2023/04/17 04:17:38;;;;;;;62.60;21.60;;;6.30;99.90;;;;;;5030494;28;20037;-74
2023/04/17 04:20:07;;;;;;;183.43;27.30;;;6.30;99.90;;;;;;5038392;28;20151;-74
2023/04/17 04:22:33;;;;;;;118.53;24.15;;;6.30;99.90;;;;;;5047288;28;20382;-74
2023/04/17 04:24:59;;;;;;;123.63;24.63;;;6.30;99.90;;;;;;5043672;28;20128;-74
2023/04/17 04:27:26;;;;;;;103.72;22.67;;;6.30;99.90;;;;;;5021025;28;20041;-74
2023/04/17 04:29:57;;;;;;;190.18;27.90;;;6.20;99.90;;;;;;5033066;28;20046;-74
2023/04/17 04:32:24;;;;;;;149.65;26.25;;;6.20;99.90;;;;;;5050228;28;20784;-74
2023/04/17 04:34:50;;;;;;;176.07;29.17;;;6.20;99.90;;;;;;5048504;28;20537;-74
2023/04/17 04:37:20;;;;;;;153.77;25.48;;;6.20;99.90;;;;;;5045378;28;20037;-74
2023/04/17 04:40:00;;;;;;;155.27;25.05;;;6.20;99.90;;;;;;5037940;28;20048;-74
2023/04/17 04:42:30;;;;;;;89.07;21.33;;;6.20;99.90;;;;;;5043454;28;20092;-74
2023/04/17 04:44:56;;;;;;;94.13;21.90;;;6.20;99.90;;;;;;5032088;28;20043;-74
2023/04/17 04:47:21;;;;;;;87.50;20.40;;;6.20;99.90;;;;;;5043071;28;20489;-74
2023/04/17 04:49:47;;;;;;;82.37;21.87;;;6.20;99.90;;;;;;5029124;28;20116;-74
2023/04/17 04:52:13;;;;;;;104.50;22.20;;;6.20;99.90;;;;;;5025878;28;20413;-74
2023/04/17 04:54:39;;;;;;;132.23;23.50;;;6.20;99.90;;;;;;5036182;28;20115;-74
2023/04/17 04:57:04;;;;;;;117.87;24.03;;;6.20;99.90;;;;;;5024703;28;20029;-74
2023/04/17 04:59:30;;;;;;;105.80;24.63;;;6.10;99.90;;;;;;5045263;28;20056;-74
2023/04/17 05:01:56;;;;;;;142.50;24.80;;;6.20;99.90;;;;;;5025401;28;20045;-74
2023/04/17 05:04:21;;;;;;;105.27;23.70;;;6.20;99.90;;;;;;5043088;28;20040;-74
2023/04/17 05:06:47;;;;;;;142.90;25.40;;;6.20;99.90;;;;;;5045995;28;20033;-74
2023/04/17 05:09:13;;;;;;;122.07;23.97;;;6.20;99.90;;;;;;5040493;28;20504;-74
2023/04/17 05:11:38;;;;;;;164.13;27.27;;;6.20;99.90;;;;;;5031026;28;20100;-74
2023/04/17 05:14:04;;;;;;;143.50;23.70;;;6.20;99.90;;;;;;5027195;28;20068;-74
2023/04/17 05:16:30;;;;;;;77.67;22.53;;;6.20;99.90;;;;;;5042598;28;20101;-75
2023/04/17 05:18:55;;;;;;;112.47;23.57;;;6.20;99.90;;;;;;5038430;28;20460;-74
2023/04/17 05:21:21;;;;;;;124.47;23.60;;;6.20;99.90;;;;;;5022800;28;20053;-74
2023/04/17 05:23:47;;;;;;;172.40;25.80;;;6.20;99.90;;;;;;5022979;28;20099;-74
2023/04/17 05:26:12;;;;;;;151.43;23.97;;;6.20;99.90;;;;;;5039491;28;20120;-74
2023/04/17 05:28:38;;;;;;;99.23;21.40;;;6.20;99.90;;;;;;5030507;28;20041;-74
2023/04/17 05:31:04;;;;;;;126.83;24.93;;;6.20;99.90;;;;;;5043846;28;20041;-74
2023/04/17 05:33:30;;;;;;;118.53;23.73;;;6.20;99.90;;;;;;5046352;28;20072;-75
2023/04/17 05:35:56;;;;;;;104.03;23.77;;;6.20;99.90;;;;;;5042780;28;20072;-75
2023/04/17 05:38:21;;;;;;;98.70;23.33;;;6.20;99.90;;;;;;5044657;28;20041;-75
2023/04/17 05:40:47;;;;;;;193.53;29.30;;;6.20;99.90;;;;;;5029978;28;20413;-75
2023/04/17 05:43:13;;;;;;;182.20;25.53;;;6.30;99.90;;;;;;5020741;28;20041;-75
2023/04/17 05:45:40;;;;;;;107.90;23.13;;;6.30;99.90;;;;;;5020494;28;20029;-75
2023/04/17 05:48:06;;;;;;;141.00;25.85;;;6.30;99.90;;;;;;5043248;28;20107;-74
2023/04/17 05:50:32;;;;;;;104.73;21.57;;;6.30;99.90;;;;;;5029899;28;20522;-74
2023/04/17 05:52:57;;;;;;;91.63;21.83;;;6.30;99.90;;;;;;5024772;28;20056;-75
2023/04/17 05:55:23;;;;;;;62.47;20.53;;;6.30;99.90;;;;;;5048457;28;20041;-75
2023/04/17 05:57:49;;;;;;;90.43;21.43;;;6.30;99.90;;;;;;5042079;28;20118;-75
2023/04/17 06:00:15;;;;;;;86.63;20.77;;;6.40;99.90;;;;;;5026135;28;20543;-75
2023/04/17 06:02:42;;;;;;;50.22;19.48;;;6.40;99.90;;;;;;5030018;28;20076;-75
2023/04/17 06:05:08;;;;;;;106.78;20.00;;;6.40;99.90;;;;;;5047701;28;20105;-75
2023/04/17 06:07:37;;;;;;;93.38;21.50;;;6.50;99.90;;;;;;5041618;28;20040;-75
2023/04/17 06:10:04;;;;;;;73.30;21.65;;;6.50;99.90;;;;;;5041584;28;20052;-75
2023/04/17 06:12:30;;;;;;;73.70;20.98;;;6.60;99.90;;;;;;5035604;28;20049;-75
2023/04/17 06:14:56;;;;;;;81.63;23.08;;;6.60;99.90;;;;;;5030315;28;20049;-75
2023/04/17 06:17:22;;;;;;;94.67;23.00;;;6.60;99.90;;;;;;5048659;28;20059;-75
2023/04/17 06:19:48;;;;;;;77.77;22.10;;;6.60;99.90;;;;;;5018332;28;20099;-75
2023/04/17 06:22:14;;;;;;;83.10;22.73;;;6.60;99.90;;;;;;5024298;28;20049;-75
2023/04/17 06:24:39;;;;;;;74.60;23.17;;;6.70;99.90;;;;;;5031759;28;20083;-75
2023/04/17 06:27:05;;;;;;;63.70;21.23;;;6.70;99.90;;;;;;5031921;28;20033;-75
2023/04/17 06:29:31;;;;;;;87.30;22.40;;;6.80;99.90;;;;;;5039194;28;20468;-75
2023/04/17 06:31:56;;;;;;;51.57;21.20;;;6.80;99.90;;;;;;5032191;28;20167;-75
2023/04/17 06:34:22;;;;;;;68.17;23.80;;;6.90;99.90;;;;;;5028789;28;20075;-75
2023/04/17 06:36:48;;;;;;;62.73;21.53;;;7.00;99.90;;;;;;5023109;28;20067;-75
2023/04/17 06:39:14;;;;;;;72.03;21.80;;;7.00;99.90;;;;;;5017930;28;20044;-75
2023/04/17 06:41:39;;;;;;;72.33;23.47;;;7.00;99.90;;;;;;5047960;28;20103;-75
2023/04/17 06:44:06;;;;;;;43.07;20.77;;;7.10;99.90;;;;;;5022594;28;20033;-75
2023/04/17 06:46:33;;;;;;;48.15;21.63;;;7.10;99.90;;;;;;5023664;28;20037;-75
2023/04/17 06:48:58;;;;;;;42.40;22.55;;;7.20;99.90;;;;;;5030700;28;20033;-75
2023/04/17 06:51:26;;;;;;;49.83;20.77;;;7.20;99.90;;;;;;5038479;28;20451;-75
2023/04/17 06:53:52;;;;;;;52.80;20.42;;;7.30;99.90;;;;;;5021823;28;20048;-75
2023/04/17 06:56:18;;;;;;;56.05;20.15;;;7.30;99.90;;;;;;5033820;28;20055;-75
2023/04/17 06:58:44;;;;;;;52.28;20.42;;;7.40;99.90;;;;;;5024041;28;20067;-75
2023/04/17 07:01:11;;;;;;;48.70;20.50;;;7.40;99.90;;;;;;5029070;28;20037;-75
2023/04/17 07:03:38;;;;;;;44.17;21.35;;;7.40;99.90;;;;;;5036357;28;20045;-75
2023/04/17 07:06:05;;;;;;;39.00;20.15;;;7.50;99.90;;;;;;5038440;28;20043;-75
2023/04/17 07:08:32;;;;;;;36.20;20.17;;;7.50;99.90;;;;;;5027659;28;20128;-76
2023/04/17 07:10:57;;;;;;;34.08;18.50;;;7.50;99.90;;;;;;5049398;28;20048;-75
2023/04/17 07:13:24;;;;;;;35.03;19.33;;;7.60;99.90;;;;;;5054942;28;20037;-75
2023/04/17 07:15:53;;;;;;;38.07;20.07;;;7.60;99.90;;;;;;5026377;28;20080;-76
2023/04/17 07:18:20;;;;;;;36.78;19.27;;;7.60;99.90;;;;;;5054061;28;20045;-75
2023/04/17 07:20:47;;;;;;;38.03;19.73;;;7.70;99.90;;;;;;5048307;28;20460;-76
2023/04/17 07:23:13;;;;;;;36.33;18.95;;;7.70;99.90;;;;;;5043912;28;20033;-75
2023/04/17 07:25:38;;;;;;;35.90;18.23;;;7.70;99.90;;;;;;5047621;28;20059;-75
2023/04/17 07:28:04;;;;;;;31.17;16.90;;;7.70;99.90;;;;;;5025772;28;20167;-75
2023/04/17 07:30:30;;;;;;;26.80;16.77;;;7.80;99.90;;;;;;5036117;28;20041;-75
2023/04/17 07:32:56;;;;;;;29.83;17.77;;;7.70;99.90;;;;;;5043594;28;20437;-76
2023/04/17 07:35:22;;;;;;;26.57;15.57;;;7.80;99.90;;;;;;5047687;28;20060;-76
2023/04/17 07:37:48;;;;;;;29.20;17.60;;;7.80;99.90;;;;;;5035548;28;20048;-76
2023/04/17 07:40:15;;;;;;;31.07;18.50;;;7.90;99.90;;;;;;5039123;28;20312;-75
2023/04/17 07:42:41;;;;;;;27.02;17.45;;;7.90;99.90;;;;;;5024122;28;20041;-75
2023/04/17 07:45:07;;;;;;;29.97;17.90;;;7.90;99.90;;;;;;5029146;28;20158;-76
2023/04/17 07:47:33;;;;;;;29.55;18.08;;;7.90;99.90;;;;;;5025512;28;20042;-76
2023/04/17 07:49:59;;;;;;;27.97;17.00;;;7.90;99.90;;;;;;5025243;28;20492;-75
2023/04/17 07:52:25;;;;;;;33.00;17.60;;;8.00;99.90;;;;;;5045048;28;20132;-76
2023/04/17 07:54:50;;;;;;;30.40;17.23;;;8.00;99.90;;;;;;5028450;28;20352;-75
2023/04/17 07:57:17;;;;;;;35.43;18.77;;;8.10;99.90;;;;;;5030028;28;20046;-75
2023/04/17 07:59:43;;;;;;;31.60;18.63;;;8.30;99.90;;;;;;5030509;28;20455;-75
2023/04/17 08:02:09;;;;;;;30.40;18.05;;;8.40;99.90;;;;;;5047902;28;20037;-75
2023/04/17 08:04:36;;;;;;;32.50;18.70;;;8.60;99.90;;;;;;5040229;28;20053;-75
2023/04/17 08:07:02;;;;;;;32.17;18.92;;;8.80;99.90;;;;;;5031398;28;20033;-76
2023/04/17 08:09:27;;;;;;;34.90;19.37;;;9.00;99.90;;;;;;5043136;28;20040;-75
2023/04/17 08:11:53;;;;;;;29.20;18.30;;;9.20;99.90;;;;;;5026018;28;20037;-76
2023/04/17 08:14:19;;;;;;;29.23;18.60;;;9.40;99.90;;;;;;5031043;28;20045;-75
2023/04/17 08:16:48;;;;;;;29.10;18.27;;;9.40;99.90;;;;;;5023082;28;20052;-75
2023/04/17 08:19:14;;;;;;;31.03;18.23;;;9.50;99.90;;;;;;5046822;28;20037;-76
2023/04/17 08:21:40;;;;;;;30.57;17.80;;;9.50;99.90;;;;;;5051306;28;20298;-76
2023/04/17 08:24:06;;;;;;;25.07;16.37;;;9.50;99.90;;;;;;5034345;28;20053;-76
2023/04/17 08:26:32;;;;;;;24.30;15.63;;;9.60;99.90;;;;;;5034355;28;20041;-75
2023/04/17 08:29:01;;;;;;;26.30;17.43;;;9.90;99.90;;;;;;5035537;28;20726;-77
2023/04/17 08:31:27;;;;;;;25.67;17.07;;;10.10;99.90;;;;;;5026314;28;20063;-76
2023/04/17 08:33:54;;;;;;;25.60;17.47;;;10.30;99.90;;;;;;5035346;28;20283;-76
2023/04/17 08:36:20;;;;;;;30.43;17.93;;;10.40;99.90;;;;;;5048897;28;20652;-76
2023/04/17 08:38:46;;;;;;;27.07;17.17;;;10.60;99.90;;;;;;5046314;28;20329;-75
2023/04/17 08:41:19;;;;;;;25.00;16.53;;;10.70;99.90;;;;;;5033169;28;20083;-76
2023/04/17 08:43:49;;;;;;;25.13;16.97;;;10.80;99.90;;;;;;5034745;28;20307;-77
2023/04/17 08:46:16;;;;;;;25.77;16.70;;;10.90;99.90;;;;;;5036704;28;20291;-76
2023/04/17 08:48:41;;;;;;;28.13;18.07;;;10.90;99.90;;;;;;5026912;28;21015;-75
2023/04/17 08:51:07;;;;;;;25.40;17.00;;;11.10;99.90;;;;;;5027178;28;20284;-74
2023/04/17 08:53:33;;;;;;;25.27;16.73;;;11.20;99.90;;;;;;5047739;28;20052;-76
2023/04/17 08:56:03;;;;;;;21.67;15.30;;;11.30;99.90;;;;;;5033291;28;20511;-76
2023/04/17 08:58:33;;;;;;;22.20;16.77;;;11.50;99.90;;;;;;5035165;28;20059;-75
2023/04/17 09:01:10;;;;;;;22.97;15.63;;;11.70;99.90;;;;;;5026336;28;20304;-75
2023/04/17 09:03:41;;;;;;;23.00;16.00;;;11.90;99.90;;;;;;5033008;28;20374;-77
2023/04/17 09:06:09;;;;;;;22.63;16.23;;;12.00;99.90;;;;;;5024967;28;20280;-76
2023/04/17 09:08:35;;;;;;;23.57;16.37;;;12.10;99.90;;;;;;5050988;28;20775;-77
2023/04/17 09:11:00;;;;;;;20.23;14.43;;;12.30;99.90;;;;;;5033508;28;20287;-76
2023/04/17 09:13:28;;;;;;;20.33;15.03;;;12.30;99.90;;;;;;5033085;28;20055;-75
2023/04/17 09:16:04;;;;;;;20.17;14.40;;;12.40;99.90;;;;;;5039590;28;20484;-75
2023/04/17 09:18:31;;;;;;;17.53;13.87;;;12.50;99.90;;;;;;5031150;28;20279;-75
2023/04/17 09:20:59;;;;;;;19.53;13.33;;;12.60;99.90;;;;;;5033159;28;20303;-75
2023/04/17 09:23:29;;;;;;;17.97;13.20;;;12.60;99.90;;;;;;5030133;28;20366;-75
2023/04/17 09:26:09;;;;;;;18.93;13.60;;;12.60;99.90;;;;;;5051318;28;20685;-75
2023/04/17 09:28:38;;;;;;;21.93;14.50;;;12.70;99.90;;;;;;5034186;28;20275;-75
2023/04/17 09:31:17;;;;;;;16.73;12.77;;;12.90;99.90;;;;;;5032841;28;20334;-73
2023/04/17 09:33:58;;;;;;;16.30;13.47;;;13.00;99.90;;;;;;5018723;28;20656;-74
2023/04/17 09:36:26;;;;;;;19.70;14.17;;;13.10;99.90;;;;;;5031436;28;20275;-75
2023/04/17 09:38:52;;;;;;;20.03;14.73;;;13.20;99.90;;;;;;5032819;28;20279;-74
2023/04/17 09:41:23;;;;;;;19.17;14.07;;;13.30;99.90;;;;;;5043799;28;20383;-74
2023/04/17 09:43:52;;;;;;;19.77;15.23;;;13.10;99.90;;;;;;5026569;28;20283;-75
2023/04/17 09:46:44;;;;;;;21.33;14.90;;;13.10;99.90;;;;;;5050462;28;20599;-75
2023/04/17 09:49:22;;;;;;;22.90;16.23;;;13.00;99.90;;;;;;5028629;28;20279;-74
2023/04/17 09:51:49;;;;;;;24.13;16.67;;;13.10;99.90;;;;;;5046511;28;20307;-74
2023/04/17 09:54:15;;;;;;;28.37;17.53;;;13.20;99.90;;;;;;5024754;28;20279;-74
2023/04/17 09:56:42;;;;;;;25.57;18.30;;;13.40;99.90;;;;;;5022462;28;20771;-74
2023/04/17 09:59:09;;;;;;;27.60;19.00;;;13.60;99.90;;;;;;5033887;28;20285;-74
2023/04/17 10:01:36;;;;;;;26.70;18.90;;;13.90;99.90;;;;;;5025742;28;20796;-74
2023/04/17 10:04:03;;;;;;;24.37;18.43;;;14.00;99.90;;;;;;5028700;28;20287;-76
2023/04/17 10:06:33;;;;;;;23.53;17.13;;;14.10;99.90;;;;;;5029978;28;20325;-75
2023/04/17 10:08:59;;;;;;;19.93;15.67;;;14.10;99.90;;;;;;5032876;28;20271;-75
2023/04/17 10:11:32;;;;;;;17.67;14.33;;;14.10;99.90;;;;;;5041953;28;20282;-75
2023/04/17 10:14:12;;;;;;;19.87;14.40;;;14.20;99.90;;;;;;5049043;28;20704;-74
2023/04/17 10:16:42;;;;;;;17.77;14.03;;;14.10;99.90;;;;;;5033992;28;20283;-75
2023/04/17 10:19:31;;;;;;;18.23;14.03;;;14.10;99.90;;;;;;5018701;28;20279;-75
2023/04/17 10:22:18;;;;;;;18.67;13.40;;;14.10;99.90;;;;;;5023004;28;20298;-75
2023/04/17 10:25:14;;;;;;;16.90;12.93;;;14.20;99.90;;;;;;5044224;28;20292;-75
2023/04/17 10:27:40;;;;;;;18.15;13.90;;;14.30;99.90;;;;;;5030510;28;20771;-74
2023/04/17 10:30:11;;;;;;;18.13;14.10;;;14.40;99.90;;;;;;5025850;28;20448;-75
2023/04/17 10:32:40;;;;;;;18.87;13.17;;;14.50;99.90;;;;;;5043710;28;20071;-75
2023/04/17 10:35:15;;;;;;;18.27;13.73;;;14.50;99.90;;;;;;5032366;28;20746;-75
2023/04/17 10:37:46;;;;;;;17.10;13.13;;;14.60;99.90;;;;;;5022755;28;20299;-75
2023/04/17 10:40:24;;;;;;;16.33;13.03;;;14.70;99.90;;;;;;5049011;28;20049;-75
2023/04/17 10:43:03;;;;;;;16.17;12.80;;;14.80;99.90;;;;;;5019478;28;20291;-75
2023/04/17 10:46:01;;;;;;;19.87;13.40;;;15.00;99.90;;;;;;5025039;28;20311;-75
2023/04/17 10:48:50;;;;;;;17.93;13.47;;;15.20;99.90;;;;;;5023238;28;20801;-75
2023/04/17 10:51:23;;;;;;;18.40;14.30;;;15.10;99.90;;;;;;5031846;28;20286;-75
2023/04/17 10:53:56;;;;;;;16.83;13.63;;;15.10;99.90;;;;;;5037847;28;20284;-75
2023/04/17 10:56:48;;;;;;;18.77;14.73;;;15.00;99.90;;;;;;5031430;28;20283;-75
2023/04/17 10:59:14;;;;;;;16.10;13.83;;;14.90;99.90;;;;;;5042053;28;20290;-75
2023/04/17 11:01:46;;;;;;;17.40;13.37;;;14.80;99.90;;;;;;5043320;28;20826;-75
2023/04/17 11:04:28;;;;;;;16.60;12.57;;;14.70;99.90;;;;;;5042444;28;20287;-75
2023/04/17 11:06:54;;;;;;;14.40;12.30;;;14.60;99.90;;;;;;5041841;28;20286;-75
2023/04/17 11:09:30;;;;;;;15.80;12.20;;;14.60;99.90;;;;;;5033331;28;20385;-75
2023/04/17 11:12:02;;;;;;;15.60;12.40;;;14.60;99.90;;;;;;5029895;28;20279;-75
2023/04/17 11:14:29;;;;;;;16.33;13.40;;;14.60;99.90;;;;;;5024940;28;20272;-75
2023/04/17 11:16:54;;;;;;;17.73;12.23;;;14.70;99.90;;;;;;5035774;28;20306;-75
2023/04/17 11:19:23;;;;;;;16.30;12.93;;;14.80;99.90;;;;;;5033300;28;20276;-76
2023/04/17 11:21:56;;;;;;;16.97;12.77;;;14.90;99.90;;;;;;5023053;28;20053;-76
2023/04/17 11:24:23;;;;;;;14.57;11.77;;;15.00;99.90;;;;;;5031288;28;20292;-75
2023/04/17 11:26:48;;;;;;;16.73;12.83;;;15.00;99.90;;;;;;5045709;28;20307;-76
2023/04/17 11:29:15;;;;;;;15.80;12.10;;;15.10;99.90;;;;;;5020550;28;21047;-76
2023/04/17 11:31:41;;;;;;;15.67;12.57;;;15.10;99.90;;;;;;5033193;28;20041;-75
2023/04/17 11:34:08;;;;;;;14.57;12.47;;;15.30;99.90;;;;;;5049482;28;20310;-76
2023/04/17 11:36:34;;;;;;;16.00;12.40;;;15.50;99.90;;;;;;5044172;28;20375;-77
2023/04/17 11:39:00;;;;;;;14.53;12.20;;;15.60;99.90;;;;;;5047754;28;20347;-76
2023/04/17 11:41:36;;;;;;;15.23;12.60;;;15.70;99.90;;;;;;5026669;28;20383;-76
2023/04/17 11:44:02;;;;;;;14.80;12.67;;;15.80;99.90;;;;;;5031831;28;20041;-77
2023/04/17 11:46:29;;;;;;;16.80;12.47;;;16.00;99.90;;;;;;5034709;28;20279;-77
2023/04/17 11:48:55;;;;;;;15.50;12.07;;;16.00;99.90;;;;;;5030242;28;20497;-77
2023/04/17 11:51:21;;;;;;;16.13;12.87;;;15.90;99.90;;;;;;5035194;28;20313;-75
2023/04/17 11:53:47;;;;;;;18.43;14.00;;;15.80;99.90;;;;;;5024395;28;20283;-76
2023/04/17 11:56:18;;;;;;;18.10;13.77;;;15.80;99.90;;;;;;5051827;28;20048;-75
2023/04/17 11:59:10;;;;;;;17.83;13.87;;;15.90;99.90;;;;;;5049390;28;20291;-76
2023/04/17 12:01:50;;;;;;;18.90;14.37;;;15.90;99.90;;;;;;5020640;28;20304;-76
2023/04/17 12:04:20;;;;;;;30.80;16.60;;;15.80;99.90;;;;;;5050567;28;20852;-76
2023/04/17 12:06:46;;;;;;;20.17;13.50;;;15.50;99.90;;;;;;5035998;28;20303;-76
2023/04/17 12:09:19;;;;;;;17.63;14.73;;;15.30;99.90;;;;;;5035056;28;20327;-77
2023/04/17 12:11:45;;;;;;;19.20;14.53;;;15.20;99.90;;;;;;5033443;28;20131;-75
2023/04/17 12:14:11;;;;;;;17.83;14.57;;;15.30;99.90;;;;;;5049537;28;20717;-76
2023/04/17 12:16:37;;;;;;;18.73;14.80;;;15.60;99.90;;;;;;5024647;28;20083;-75
2023/04/17 12:19:03;;;;;;;19.23;13.47;;;15.90;99.90;;;;;;5025419;28;20319;-76
2023/04/17 12:21:28;;;;;;;18.37;14.77;;;16.20;99.90;;;;;;5034369;28;20406;-76
2023/04/17 12:23:54;;;;;;;20.27;13.87;;;16.50;99.90;;;;;;5046403;28;20097;-77
2023/04/17 12:26:20;;;;;;;20.17;14.33;;;16.80;99.90;;;;;;5051293;28;20123;-75
2023/04/17 12:28:46;;;;;;;17.97;14.20;;;16.90;99.90;;;;;;5035275;28;20349;-76
2023/04/17 12:31:12;;;;;;;17.67;14.73;;;16.90;99.90;;;;;;5050383;28;20287;-76
2023/04/17 12:33:37;;;;;;;18.13;13.70;;;16.90;99.90;;;;;;5026429;28;20075;-76
2023/04/17 12:36:05;;;;;;;18.63;14.23;;;16.90;99.90;;;;;;5041291;28;20037;-76